sensor_id;sensor_type;location;lat;lon;timestamp;temperature;humidity
22623;DHT22;11478;51.094;7.030;2024-02-21T00:01:24;7.80;99.90
22623;DHT22;11478;51.094;7.030;2024-02-21T00:03:51;7.80;99.90
22623;DHT22;11478;51.094;7.030;2024-02-21T00:06:17;7.80;99.90
22623;DHT22;11478;51.094;7.030;2024-02-21T00:08:43;7.80;99.90
22623;DHT22;11478;51.094;7.030;2024-02-21T00:11:09;7.80;99.90
22623;DHT22;11478;51.094;7.030;2024-02-21T00:13:37;7.80;99.90
22623;DHT22;11478;51.094;7.030;2024-02-21T00:16:03;7.80;99.90
22623;DHT22;11478;51.094;7.030;2024-02-21T00:18:29;7.80;99.90
22623;DHT22;11478;51.094;7.030;2024-02-21T00:20:57;7.80;99.90
22623;DHT22;11478;51.094;7.030;2024-02-21T00:23:23;7.80;99.90
22623;DHT22;11478;51.094;7.030;2024-02-21T00:25:49;7.80;99.90
22623;DHT22;11478;51.094;7.030;2024-02-21T00:28:18;7.80;99.90
22623;DHT22;11478;51.094;7.030;2024-02-21T00:30:44;7.80;99.90
22623;DHT22;11478;51.094;7.030;2024-02-21T00:33:11;7.80;99.90
22623;DHT22;11478;51.094;7.030;2024-02-21T00:35:37;7.80;99.90
22623;DHT22;11478;51.094;7.030;2024-02-21T00:38:04;7.80;99.90
22623;DHT22;11478;51.094;7.030;2024-02-21T00:40:30;7.80;99.90
22623;DHT22;11478;51.094;7.030;2024-02-21T00:42:57;7.80;99.90
22623;DHT22;11478;51.094;7.030;2024-02-21T00:45:22;7.80;99.90
22623;DHT22;11478;51.094;7.030;2024-02-21T00:47:49;7.80;99.90
22623;DHT22;11478;51.094;7.030;2024-02-21T00:50:15;7.80;99.90
22623;DHT22;11478;51.094;7.030;2024-02-21T00:53:00;7.80;99.90
22623;DHT22;11478;51.094;7.030;2024-02-21T00:55:26;7.80;99.90
22623;DHT22;11478;51.094;7.030;2024-02-21T00:57:52;7.80;99.90
22623;DHT22;11478;51.094;7.030;2024-02-21T01:00:18;7.90;99.90
22623;DHT22;11478;51.094;7.030;2024-02-21T01:02:44;7.90;99.90
22623;DHT22;11478;51.094;7.030;2024-02-21T01:05:10;7.90;99.90
22623;DHT22;11478;51.094;7.030;2024-02-21T01:07:36;7.90;99.90
22623;DHT22;11478;51.094;7.030;2024-02-21T01:10:01;7.90;99.90
22623;DHT22;11478;51.094;7.030;2024-02-21T01:12:27;7.90;99.90
22623;DHT22;11478;51.094;7.030;2024-02-21T01:14:53;7.90;99.90
22623;DHT22;11478;51.094;7.030;2024-02-21T01:17:19;7.90;99.90
22623;DHT22;11478;51.094;7.030;2024-02-21T01:19:46;7.90;99.90
22623;DHT22;11478;51.094;7.030;2024-02-21T01:22:12;7.90;99.90
22623;DHT22;11478;51.094;7.030;2024-02-21T01:24:38;7.90;99.90
22623;DHT22;11478;51.094;7.030;2024-02-21T01:27:10;7.90;99.90
22623;DHT22;11478;51.094;7.030;2024-02-21T01:29:36;7.90;99.90
22623;DHT22;11478;51.094;7.030;2024-02-21T01:32:02;7.90;99.90
22623;DHT22;11478;51.094;7.030;2024-02-21T01:34:28;7.90;99.90
22623;DHT22;11478;51.094;7.030;2024-02-21T01:36:54;7.90;99.90
22623;DHT22;11478;51.094;7.030;2024-02-21T01:39:19;7.90;99.90
22623;DHT22;11478;51.094;7.030;2024-02-21T01:41:45;7.90;99.90
22623;DHT22;11478;51.094;7.030;2024-02-21T01:44:14;7.90;99.90
22623;DHT22;11478;51.094;7.030;2024-02-21T01:46:58;7.80;99.90
22623;DHT22;11478;51.094;7.030;2024-02-21T01:49:24;7.80;99.90
22623;DHT22;11478;51.094;7.030;2024-02-21T01:51:55;7.80;99.90
22623;DHT22;11478;51.094;7.030;2024-02-21T01:54:21;7.90;99.90
22623;DHT22;11478;51.094;7.030;2024-02-21T01:56:50;7.90;99.90
22623;DHT22;11478;51.094;7.030;2024-02-21T01:59:17;7.90;99.90
22623;DHT22;11478;51.094;7.030;2024-02-21T02:01:46;7.90;99.90
22623;DHT22;11478;51.094;7.030;2024-02-21T02:04:13;7.90;99.90
22623;DHT22;11478;51.094;7.030;2024-02-21T02:06:40;7.90;99.90
22623;DHT22;11478;51.094;7.030;2024-02-21T02:09:07;7.90;99.90
22623;DHT22;11478;51.094;7.030;2024-02-21T02:11:34;7.90;99.90
22623;DHT22;11478;51.094;7.030;2024-02-21T02:14:01;7.80;99.90
22623;DHT22;11478;51.094;7.030;2024-02-21T02:16:26;7.80;99.90
22623;DHT22;11478;51.094;7.030;2024-02-21T02:18:52;7.80;99.90
22623;DHT22;11478;51.094;7.030;2024-02-21T02:21:30;7.80;99.90
22623;DHT22;11478;51.094;7.030;2024-02-21T02:24:00;7.80;99.90
22623;DHT22;11478;51.094;7.030;2024-02-21T02:26:26;7.80;99.90
22623;DHT22;11478;51.094;7.030;2024-02-21T02:28:54;7.80;99.90
22623;DHT22;11478;51.094;7.030;2024-02-21T02:31:20;7.80;99.90
22623;DHT22;11478;51.094;7.030;2024-02-21T02:33:46;7.80;99.90
22623;DHT22;11478;51.094;7.030;2024-02-21T02:36:12;7.80;99.90
22623;DHT22;11478;51.094;7.030;2024-02-21T02:38:40;7.80;99.90
22623;DHT22;11478;51.094;7.030;2024-02-21T02:41:05;7.80;99.90
22623;DHT22;11478;51.094;7.030;2024-02-21T02:43:32;7.80;99.90
22623;DHT22;11478;51.094;7.030;2024-02-21T02:45:58;7.80;99.90
22623;DHT22;11478;51.094;7.030;2024-02-21T02:48:34;7.80;99.90
22623;DHT22;11478;51.094;7.030;2024-02-21T02:51:00;7.80;99.90
22623;DHT22;11478;51.094;7.030;2024-02-21T02:53:26;7.80;99.90
22623;DHT22;11478;51.094;7.030;2024-02-21T02:55:52;7.80;99.90
22623;DHT22;11478;51.094;7.030;2024-02-21T02:58:19;7.80;99.90
22623;DHT22;11478;51.094;7.030;2024-02-21T03:04:28;7.80;99.90
22623;DHT22;11478;51.094;7.030;2024-02-21T03:06:54;7.80;99.90
22623;DHT22;11478;51.094;7.030;2024-02-21T03:09:20;7.80;99.90
22623;DHT22;11478;51.094;7.030;2024-02-21T03:11:48;7.80;99.90
22623;DHT22;11478;51.094;7.030;2024-02-21T03:14:14;7.80;99.90
22623;DHT22;11478;51.094;7.030;2024-02-21T03:16:59;7.80;99.90
22623;DHT22;11478;51.094;7.030;2024-02-21T03:19:25;7.80;99.90
22623;DHT22;11478;51.094;7.030;2024-02-21T03:21:56;7.80;99.90
22623;DHT22;11478;51.094;7.030;2024-02-21T03:24:26;7.80;99.90
22623;DHT22;11478;51.094;7.030;2024-02-21T03:26:54;7.80;99.90
22623;DHT22;11478;51.094;7.030;2024-02-21T03:29:21;7.80;99.90
22623;DHT22;11478;51.094;7.030;2024-02-21T03:31:47;7.80;99.90
22623;DHT22;11478;51.094;7.030;2024-02-21T03:34:14;7.80;99.90
22623;DHT22;11478;51.094;7.030;2024-02-21T03:36:40;7.80;99.90
22623;DHT22;11478;51.094;7.030;2024-02-21T03:39:11;7.80;99.90
22623;DHT22;11478;51.094;7.030;2024-02-21T03:41:37;7.80;99.90
22623;DHT22;11478;51.094;7.030;2024-02-21T03:44:04;7.80;99.90
22623;DHT22;11478;51.094;7.030;2024-02-21T03:46:30;7.80;99.90
22623;DHT22;11478;51.094;7.030;2024-02-21T03:48:57;7.80;99.90
22623;DHT22;11478;51.094;7.030;2024-02-21T03:51:23;7.80;99.90
22623;DHT22;11478;51.094;7.030;2024-02-21T03:53:51;7.80;99.90
22623;DHT22;11478;51.094;7.030;2024-02-21T03:56:17;7.80;99.90
22623;DHT22;11478;51.094;7.030;2024-02-21T03:58:43;7.80;99.90
22623;DHT22;11478;51.094;7.030;2024-02-21T04:01:09;7.80;99.90
22623;DHT22;11478;51.094;7.030;2024-02-21T04:03:35;7.80;99.90
22623;DHT22;11478;51.094;7.030;2024-02-21T04:06:01;7.80;99.90
22623;DHT22;11478;51.094;7.030;2024-02-21T04:08:30;7.70;99.90
22623;DHT22;11478;51.094;7.030;2024-02-21T04:10:56;7.70;99.90
22623;DHT22;11478;51.094;7.030;2024-02-21T04:13:23;7.70;99.90
22623;DHT22;11478;51.094;7.030;2024-02-21T04:15:49;7.70;99.90
22623;DHT22;11478;51.094;7.030;2024-02-21T04:18:16;7.70;99.90
22623;DHT22;11478;51.094;7.030;2024-02-21T04:20:42;7.70;99.90
22623;DHT22;11478;51.094;7.030;2024-02-21T04:23:14;7.70;99.90
22623;DHT22;11478;51.094;7.030;2024-02-21T04:25:39;7.70;99.90
22623;DHT22;11478;51.094;7.030;2024-02-21T04:28:06;7.70;99.90
22623;DHT22;11478;51.094;7.030;2024-02-21T04:30:31;7.70;99.90
22623;DHT22;11478;51.094;7.030;2024-02-21T04:32:58;7.70;99.90
22623;DHT22;11478;51.094;7.030;2024-02-21T04:35:23;7.70;99.90
22623;DHT22;11478;51.094;7.030;2024-02-21T04:37:51;7.70;99.90
22623;DHT22;11478;51.094;7.030;2024-02-21T04:40:20;7.70;99.90
22623;DHT22;11478;51.094;7.030;2024-02-21T04:42:46;7.70;99.90
22623;DHT22;11478;51.094;7.030;2024-02-21T04:45:12;7.70;99.90
22623;DHT22;11478;51.094;7.030;2024-02-21T04:47:40;7.70;99.90
22623;DHT22;11478;51.094;7.030;2024-02-21T04:50:06;7.70;99.90
22623;DHT22;11478;51.094;7.030;2024-02-21T04:52:33;7.70;99.90
22623;DHT22;11478;51.094;7.030;2024-02-21T04:54:59;7.70;99.90
22623;DHT22;11478;51.094;7.030;2024-02-21T04:57:26;7.70;99.90
22623;DHT22;11478;51.094;7.030;2024-02-21T04:59:52;7.70;99.90
22623;DHT22;11478;51.094;7.030;2024-02-21T05:02:18;7.70;99.90
22623;DHT22;11478;51.094;7.030;2024-02-21T05:04:46;7.70;99.90
22623;DHT22;11478;51.094;7.030;2024-02-21T05:07:12;7.70;99.90
22623;DHT22;11478;51.094;7.030;2024-02-21T05:09:38;7.70;99.90
22623;DHT22;11478;51.094;7.030;2024-02-21T05:12:04;7.70;99.90
22623;DHT22;11478;51.094;7.030;2024-02-21T05:14:30;7.70;99.90
22623;DHT22;11478;51.094;7.030;2024-02-21T05:16:57;7.70;99.90
22623;DHT22;11478;51.094;7.030;2024-02-21T05:19:23;7.70;99.90
22623;DHT22;11478;51.094;7.030;2024-02-21T05:21:49;7.70;99.90
22623;DHT22;11478;51.094;7.030;2024-02-21T05:24:16;7.70;99.90
22623;DHT22;11478;51.094;7.030;2024-02-21T05:26:42;7.70;99.90
22623;DHT22;11478;51.094;7.030;2024-02-21T05:29:10;7.70;99.90
22623;DHT22;11478;51.094;7.030;2024-02-21T05:34:21;7.70;99.90
22623;DHT22;11478;51.094;7.030;2024-02-21T05:36:47;7.70;99.90
22623;DHT22;11478;51.094;7.030;2024-02-21T05:39:15;7.70;99.90
22623;DHT22;11478;51.094;7.030;2024-02-21T05:41:44;7.60;99.90
22623;DHT22;11478;51.094;7.030;2024-02-21T05:44:11;7.70;99.90
22623;DHT22;11478;51.094;7.030;2024-02-21T05:46:37;7.70;99.90
22623;DHT22;11478;51.094;7.030;2024-02-21T05:49:07;7.60;99.90
22623;DHT22;11478;51.094;7.030;2024-02-21T05:51:34;7.60;99.90
22623;DHT22;11478;51.094;7.030;2024-02-21T05:54:00;7.60;99.90
22623;DHT22;11478;51.094;7.030;2024-02-21T05:56:26;7.60;99.90
22623;DHT22;11478;51.094;7.030;2024-02-21T05:58:52;7.60;99.90
22623;DHT22;11478;51.094;7.030;2024-02-21T06:01:18;7.60;99.90
22623;DHT22;11478;51.094;7.030;2024-02-21T06:03:44;7.60;99.90
22623;DHT22;11478;51.094;7.030;2024-02-21T06:06:10;7.60;99.90
22623;DHT22;11478;51.094;7.030;2024-02-21T06:08:44;7.60;99.90
22623;DHT22;11478;51.094;7.030;2024-02-21T06:11:10;7.60;99.90
22623;DHT22;11478;51.094;7.030;2024-02-21T06:13:38;7.60;99.90
22623;DHT22;11478;51.094;7.030;2024-02-21T06:16:06;7.60;99.90
22623;DHT22;11478;51.094;7.030;2024-02-21T06:18:35;7.60;99.90
22623;DHT22;11478;51.094;7.030;2024-02-21T06:21:02;7.60;99.90
22623;DHT22;11478;51.094;7.030;2024-02-21T06:23:32;7.60;99.90
22623;DHT22;11478;51.094;7.030;2024-02-21T06:25:58;7.60;99.90
22623;DHT22;11478;51.094;7.030;2024-02-21T06:28:24;7.60;99.90
22623;DHT22;11478;51.094;7.030;2024-02-21T06:30:50;7.60;99.90
22623;DHT22;11478;51.094;7.030;2024-02-21T06:33:16;7.60;99.90
22623;DHT22;11478;51.094;7.030;2024-02-21T06:35:42;7.60;99.90
22623;DHT22;11478;51.094;7.030;2024-02-21T06:38:08;7.60;99.90
22623;DHT22;11478;51.094;7.030;2024-02-21T06:40:34;7.60;99.90
22623;DHT22;11478;51.094;7.030;2024-02-21T06:43:06;7.60;99.90
22623;DHT22;11478;51.094;7.030;2024-02-21T06:45:31;7.60;99.90
22623;DHT22;11478;51.094;7.030;2024-02-21T06:47:58;7.60;99.90
22623;DHT22;11478;51.094;7.030;2024-02-21T06:50:23;7.70;99.90
22623;DHT22;11478;51.094;7.030;2024-02-21T06:52:56;7.70;99.90
22623;DHT22;11478;51.094;7.030;2024-02-21T06:55:21;7.70;99.90
22623;DHT22;11478;51.094;7.030;2024-02-21T06:57:47;7.70;99.90
22623;DHT22;11478;51.094;7.030;2024-02-21T07:00:34;7.80;99.90
22623;DHT22;11478;51.094;7.030;2024-02-21T07:02:59;7.80;99.90
22623;DHT22;11478;51.094;7.030;2024-02-21T07:05:26;7.80;99.90
22623;DHT22;11478;51.094;7.030;2024-02-21T07:07:51;7.80;99.90
22623;DHT22;11478;51.094;7.030;2024-02-21T07:10:17;7.80;99.90
22623;DHT22;11478;51.094;7.030;2024-02-21T07:12:43;7.80;99.90
22623;DHT22;11478;51.094;7.030;2024-02-21T07:15:10;7.80;99.90
22623;DHT22;11478;51.094;7.030;2024-02-21T07:17:35;7.80;99.90
22623;DHT22;11478;51.094;7.030;2024-02-21T07:20:01;7.80;99.90
22623;DHT22;11478;51.094;7.030;2024-02-21T07:22:29;7.80;99.90
22623;DHT22;11478;51.094;7.030;2024-02-21T07:24:59;7.80;99.90
22623;DHT22;11478;51.094;7.030;2024-02-21T07:27:24;7.80;99.90
22623;DHT22;11478;51.094;7.030;2024-02-21T07:29:57;7.90;99.90
22623;DHT22;11478;51.094;7.030;2024-02-21T07:32:23;7.90;99.90
22623;DHT22;11478;51.094;7.030;2024-02-21T07:34:49;7.90;99.90
22623;DHT22;11478;51.094;7.030;2024-02-21T07:37:17;7.90;99.90
22623;DHT22;11478;51.094;7.030;2024-02-21T07:39:43;7.90;99.90
22623;DHT22;11478;51.094;7.030;2024-02-21T07:42:09;7.90;99.90
22623;DHT22;11478;51.094;7.030;2024-02-21T07:44:35;7.90;99.90
22623;DHT22;11478;51.094;7.030;2024-02-21T07:47:02;8.00;99.90
22623;DHT22;11478;51.094;7.030;2024-02-21T07:49:28;8.00;99.90
22623;DHT22;11478;51.094;7.030;2024-02-21T07:51:54;8.00;99.90
22623;DHT22;11478;51.094;7.030;2024-02-21T07:54:21;8.00;99.90
22623;DHT22;11478;51.094;7.030;2024-02-21T07:56:47;8.00;99.90
22623;DHT22;11478;51.094;7.030;2024-02-21T07:59:13;8.10;99.90
22623;DHT22;11478;51.094;7.030;2024-02-21T08:01:39;8.10;99.90
22623;DHT22;11478;51.094;7.030;2024-02-21T08:04:12;8.10;99.90
22623;DHT22;11478;51.094;7.030;2024-02-21T08:06:38;8.10;99.90
22623;DHT22;11478;51.094;7.030;2024-02-21T08:09:06;8.10;99.90
22623;DHT22;11478;51.094;7.030;2024-02-21T08:11:32;8.10;99.90
22623;DHT22;11478;51.094;7.030;2024-02-21T08:14:01;8.10;99.90
22623;DHT22;11478;51.094;7.030;2024-02-21T08:16:27;8.10;99.90
22623;DHT22;11478;51.094;7.030;2024-02-21T08:18:56;8.10;99.90
22623;DHT22;11478;51.094;7.030;2024-02-21T08:21:27;8.10;99.90
22623;DHT22;11478;51.094;7.030;2024-02-21T08:24:03;8.10;99.90
22623;DHT22;11478;51.094;7.030;2024-02-21T08:26:29;8.10;99.90
22623;DHT22;11478;51.094;7.030;2024-02-21T08:28:57;8.10;99.90
22623;DHT22;11478;51.094;7.030;2024-02-21T08:31:26;8.10;99.90
22623;DHT22;11478;51.094;7.030;2024-02-21T08:34:01;8.20;99.90
22623;DHT22;11478;51.094;7.030;2024-02-21T08:36:34;8.20;99.90
22623;DHT22;11478;51.094;7.030;2024-02-21T08:39:01;8.20;99.90
22623;DHT22;11478;51.094;7.030;2024-02-21T08:41:33;8.20;99.90
22623;DHT22;11478;51.094;7.030;2024-02-21T08:44:00;8.20;99.90
22623;DHT22;11478;51.094;7.030;2024-02-21T08:46:27;8.30;99.90
22623;DHT22;11478;51.094;7.030;2024-02-21T08:48:54;8.30;99.90
22623;DHT22;11478;51.094;7.030;2024-02-21T08:51:20;8.30;99.90
22623;DHT22;11478;51.094;7.030;2024-02-21T08:53:47;8.30;99.90
22623;DHT22;11478;51.094;7.030;2024-02-21T08:56:13;8.30;99.90
22623;DHT22;11478;51.094;7.030;2024-02-21T08:58:42;8.30;99.90
22623;DHT22;11478;51.094;7.030;2024-02-21T09:01:11;8.40;99.90
22623;DHT22;11478;51.094;7.030;2024-02-21T09:03:37;8.40;99.90
22623;DHT22;11478;51.094;7.030;2024-02-21T09:06:07;8.40;99.90
22623;DHT22;11478;51.094;7.030;2024-02-21T09:08:33;8.50;99.90
22623;DHT22;11478;51.094;7.030;2024-02-21T09:11:06;8.40;99.90
22623;DHT22;11478;51.094;7.030;2024-02-21T09:13:32;8.50;99.90
22623;DHT22;11478;51.094;7.030;2024-02-21T09:15:58;8.50;99.90
22623;DHT22;11478;51.094;7.030;2024-02-21T09:18:23;8.50;99.90
22623;DHT22;11478;51.094;7.030;2024-02-21T09:20:51;8.50;99.90
22623;DHT22;11478;51.094;7.030;2024-02-21T09:23:17;8.60;99.90
22623;DHT22;11478;51.094;7.030;2024-02-21T09:25:45;8.60;99.90
22623;DHT22;11478;51.094;7.030;2024-02-21T09:28:11;8.60;99.90
22623;DHT22;11478;51.094;7.030;2024-02-21T09:30:42;8.70;99.90
22623;DHT22;11478;51.094;7.030;2024-02-21T09:33:08;8.70;99.90
22623;DHT22;11478;51.094;7.030;2024-02-21T09:35:34;8.70;99.90
22623;DHT22;11478;51.094;7.030;2024-02-21T09:38:00;8.80;99.90
22623;DHT22;11478;51.094;7.030;2024-02-21T09:40:31;8.90;99.90
22623;DHT22;11478;51.094;7.030;2024-02-21T09:43:06;8.90;99.90
22623;DHT22;11478;51.094;7.030;2024-02-21T09:45:36;8.90;99.90
22623;DHT22;11478;51.094;7.030;2024-02-21T09:48:34;9.00;99.90
22623;DHT22;11478;51.094;7.030;2024-02-21T09:51:03;9.00;99.90
22623;DHT22;11478;51.094;7.030;2024-02-21T09:53:31;9.00;99.90
22623;DHT22;11478;51.094;7.030;2024-02-21T09:55:58;9.00;99.90
22623;DHT22;11478;51.094;7.030;2024-02-21T09:58:26;9.10;99.90
22623;DHT22;11478;51.094;7.030;2024-02-21T10:00:54;9.20;99.90
22623;DHT22;11478;51.094;7.030;2024-02-21T10:03:20;9.30;99.90
22623;DHT22;11478;51.094;7.030;2024-02-21T10:05:49;9.40;99.90
22623;DHT22;11478;51.094;7.030;2024-02-21T10:08:18;9.40;99.90
22623;DHT22;11478;51.094;7.030;2024-02-21T10:10:46;9.50;99.90
22623;DHT22;11478;51.094;7.030;2024-02-21T10:13:26;9.60;99.90
22623;DHT22;11478;51.094;7.030;2024-02-21T10:16:06;9.70;99.90
22623;DHT22;11478;51.094;7.030;2024-02-21T10:18:35;9.90;99.90
22623;DHT22;11478;51.094;7.030;2024-02-21T10:23:27;10.30;99.90
22623;DHT22;11478;51.094;7.030;2024-02-21T10:25:53;10.40;99.90
22623;DHT22;11478;51.094;7.030;2024-02-21T10:28:19;10.60;99.90
22623;DHT22;11478;51.094;7.030;2024-02-21T10:30:52;10.60;99.90
22623;DHT22;11478;51.094;7.030;2024-02-21T10:33:18;10.60;99.90
22623;DHT22;11478;51.094;7.030;2024-02-21T10:35:49;10.60;99.90
22623;DHT22;11478;51.094;7.030;2024-02-21T10:38:25;10.60;99.90
22623;DHT22;11478;51.094;7.030;2024-02-21T10:40:54;10.60;99.90
22623;DHT22;11478;51.094;7.030;2024-02-21T10:43:23;10.60;99.90
22623;DHT22;11478;51.094;7.030;2024-02-21T10:45:50;10.60;99.90
22623;DHT22;11478;51.094;7.030;2024-02-21T10:51:16;10.80;99.90
22623;DHT22;11478;51.094;7.030;2024-02-21T10:54:02;10.80;99.90
22623;DHT22;11478;51.094;7.030;2024-02-21T10:56:34;10.90;99.90
22623;DHT22;11478;51.094;7.030;2024-02-21T10:59:06;10.90;99.90
22623;DHT22;11478;51.094;7.030;2024-02-21T11:01:33;10.90;99.90
22623;DHT22;11478;51.094;7.030;2024-02-21T11:04:11;11.00;99.90
22623;DHT22;11478;51.094;7.030;2024-02-21T11:06:39;11.10;99.90
22623;DHT22;11478;51.094;7.030;2024-02-21T11:09:08;11.10;99.90
22623;DHT22;11478;51.094;7.030;2024-02-21T11:12:25;11.10;99.90
22623;DHT22;11478;51.094;7.030;2024-02-21T11:14:52;11.10;99.90
22623;DHT22;11478;51.094;7.030;2024-02-21T11:17:20;11.20;99.90
22623;DHT22;11478;51.094;7.030;2024-02-21T11:19:53;11.10;99.90
22623;DHT22;11478;51.094;7.030;2024-02-21T11:22:20;11.20;99.90
22623;DHT22;11478;51.094;7.030;2024-02-21T11:24:49;11.20;99.90
22623;DHT22;11478;51.094;7.030;2024-02-21T11:27:16;11.20;99.90
22623;DHT22;11478;51.094;7.030;2024-02-21T11:29:54;11.20;99.90
22623;DHT22;11478;51.094;7.030;2024-02-21T11:32:21;11.20;99.90
22623;DHT22;11478;51.094;7.030;2024-02-21T11:35:07;11.20;99.90
22623;DHT22;11478;51.094;7.030;2024-02-21T11:37:35;11.20;99.90
22623;DHT22;11478;51.094;7.030;2024-02-21T11:40:09;11.20;99.90
22623;DHT22;11478;51.094;7.030;2024-02-21T11:42:35;11.20;99.90
22623;DHT22;11478;51.094;7.030;2024-02-21T11:45:01;11.20;99.90
22623;DHT22;11478;51.094;7.030;2024-02-21T11:47:28;11.20;99.90
22623;DHT22;11478;51.094;7.030;2024-02-21T11:49:54;11.20;99.90
22623;DHT22;11478;51.094;7.030;2024-02-21T11:52:25;11.20;99.90
22623;DHT22;11478;51.094;7.030;2024-02-21T11:54:52;11.10;99.90
22623;DHT22;11478;51.094;7.030;2024-02-21T11:57:18;11.10;99.90
22623;DHT22;11478;51.094;7.030;2024-02-21T11:59:47;11.10;99.90
22623;DHT22;11478;51.094;7.030;2024-02-21T12:02:17;11.10;99.90
22623;DHT22;11478;51.094;7.030;2024-02-21T12:04:47;11.10;99.90
22623;DHT22;11478;51.094;7.030;2024-02-21T12:07:14;11.10;99.90
22623;DHT22;11478;51.094;7.030;2024-02-21T12:09:41;11.20;99.90
22623;DHT22;11478;51.094;7.030;2024-02-21T12:12:08;11.20;99.90
22623;DHT22;11478;51.094;7.030;2024-02-21T12:14:35;11.20;99.90
22623;DHT22;11478;51.094;7.030;2024-02-21T12:17:02;11.20;99.90
22623;DHT22;11478;51.094;7.030;2024-02-21T12:19:33;11.20;99.90
22623;DHT22;11478;51.094;7.030;2024-02-21T12:22:00;11.20;99.90
22623;DHT22;11478;51.094;7.030;2024-02-21T12:24:28;11.10;99.90
22623;DHT22;11478;51.094;7.030;2024-02-21T12:26:56;11.10;99.90
22623;DHT22;11478;51.094;7.030;2024-02-21T12:29:25;11.00;99.90
22623;DHT22;11478;51.094;7.030;2024-02-21T12:31:51;11.00;99.90
22623;DHT22;11478;51.094;7.030;2024-02-21T12:34:17;10.90;99.90
22623;DHT22;11478;51.094;7.030;2024-02-21T12:36:55;10.90;99.90
22623;DHT22;11478;51.094;7.030;2024-02-21T12:39:21;10.90;99.90
22623;DHT22;11478;51.094;7.030;2024-02-21T12:41:47;10.90;99.90
22623;DHT22;11478;51.094;7.030;2024-02-21T12:44:13;10.90;99.90
22623;DHT22;11478;51.094;7.030;2024-02-21T12:46:40;11.00;99.90
22623;DHT22;11478;51.094;7.030;2024-02-21T12:49:06;11.20;99.90
22623;DHT22;11478;51.094;7.030;2024-02-21T12:51:34;11.20;99.90
22623;DHT22;11478;51.094;7.030;2024-02-21T12:54:00;11.30;99.90
22623;DHT22;11478;51.094;7.030;2024-02-21T12:56:26;11.30;99.90
22623;DHT22;11478;51.094;7.030;2024-02-21T12:58:58;11.30;99.90
22623;DHT22;11478;51.094;7.030;2024-02-21T13:01:24;11.30;99.90
22623;DHT22;11478;51.094;7.030;2024-02-21T13:03:50;11.40;99.90
22623;DHT22;11478;51.094;7.030;2024-02-21T13:06:16;11.50;99.90
22623;DHT22;11478;51.094;7.030;2024-02-21T13:08:42;11.70;99.90
22623;DHT22;11478;51.094;7.030;2024-02-21T13:11:09;11.70;99.90
22623;DHT22;11478;51.094;7.030;2024-02-21T13:13:36;11.80;99.90
22623;DHT22;11478;51.094;7.030;2024-02-21T13:16:02;11.90;99.90
22623;DHT22;11478;51.094;7.030;2024-02-21T13:18:28;12.00;99.90
22623;DHT22;11478;51.094;7.030;2024-02-21T13:20:54;12.00;99.90
22623;DHT22;11478;51.094;7.030;2024-02-21T13:23:20;12.10;99.90
22623;DHT22;11478;51.094;7.030;2024-02-21T13:25:50;12.10;99.90
22623;DHT22;11478;51.094;7.030;2024-02-21T13:28:16;12.10;99.90
22623;DHT22;11478;51.094;7.030;2024-02-21T13:30:43;12.00;99.90
22623;DHT22;11478;51.094;7.030;2024-02-21T13:33:11;12.00;99.90
22623;DHT22;11478;51.094;7.030;2024-02-21T13:35:37;12.00;99.90
22623;DHT22;11478;51.094;7.030;2024-02-21T13:38:04;12.10;99.90
22623;DHT22;11478;51.094;7.030;2024-02-21T13:40:32;12.10;99.90
22623;DHT22;11478;51.094;7.030;2024-02-21T13:42:58;12.10;99.90
22623;DHT22;11478;51.094;7.030;2024-02-21T13:45:24;12.10;99.90
22623;DHT22;11478;51.094;7.030;2024-02-21T13:47:50;12.20;99.90
22623;DHT22;11478;51.094;7.030;2024-02-21T13:50:16;12.10;99.90
22623;DHT22;11478;51.094;7.030;2024-02-21T13:52:43;12.10;99.90
22623;DHT22;11478;51.094;7.030;2024-02-21T13:55:09;12.00;99.90
22623;DHT22;11478;51.094;7.030;2024-02-21T13:57:36;12.00;99.90
22623;DHT22;11478;51.094;7.030;2024-02-21T14:00:05;11.90;99.90
22623;DHT22;11478;51.094;7.030;2024-02-21T14:02:35;11.80;99.90
22623;DHT22;11478;51.094;7.030;2024-02-21T14:05:01;11.70;99.90
22623;DHT22;11478;51.094;7.030;2024-02-21T14:07:30;11.60;99.90
22623;DHT22;11478;51.094;7.030;2024-02-21T14:10:06;11.60;99.90
22623;DHT22;11478;51.094;7.030;2024-02-21T14:12:32;11.50;99.90
22623;DHT22;11478;51.094;7.030;2024-02-21T14:14:58;11.50;99.90
22623;DHT22;11478;51.094;7.030;2024-02-21T14:17:34;11.50;99.90
22623;DHT22;11478;51.094;7.030;2024-02-21T14:19:59;11.50;99.90
22623;DHT22;11478;51.094;7.030;2024-02-21T14:22:25;11.50;99.90
22623;DHT22;11478;51.094;7.030;2024-02-21T14:24:51;11.50;99.90
22623;DHT22;11478;51.094;7.030;2024-02-21T14:27:17;11.50;99.90
22623;DHT22;11478;51.094;7.030;2024-02-21T14:29:43;11.50;99.90
22623;DHT22;11478;51.094;7.030;2024-02-21T14:32:10;11.50;99.90
22623;DHT22;11478;51.094;7.030;2024-02-21T14:34:38;11.50;99.90
22623;DHT22;11478;51.094;7.030;2024-02-21T14:37:04;11.50;99.90
22623;DHT22;11478;51.094;7.030;2024-02-21T14:39:30;11.50;99.90
22623;DHT22;11478;51.094;7.030;2024-02-21T14:41:58;11.50;99.90
22623;DHT22;11478;51.094;7.030;2024-02-21T14:44:32;11.40;99.90
22623;DHT22;11478;51.094;7.030;2024-02-21T14:47:01;11.30;99.90
22623;DHT22;11478;51.094;7.030;2024-02-21T14:49:31;11.30;99.90
22623;DHT22;11478;51.094;7.030;2024-02-21T14:51:57;11.30;99.90
22623;DHT22;11478;51.094;7.030;2024-02-21T14:54:44;11.20;99.90
22623;DHT22;11478;51.094;7.030;2024-02-21T14:57:20;11.20;99.90
22623;DHT22;11478;51.094;7.030;2024-02-21T14:59:54;11.20;99.90
22623;DHT22;11478;51.094;7.030;2024-02-21T15:02:24;11.20;99.90
22623;DHT22;11478;51.094;7.030;2024-02-21T15:04:53;11.10;99.90
22623;DHT22;11478;51.094;7.030;2024-02-21T15:07:19;11.10;99.90
22623;DHT22;11478;51.094;7.030;2024-02-21T15:09:57;11.10;99.90
22623;DHT22;11478;51.094;7.030;2024-02-21T15:12:25;11.10;99.90
22623;DHT22;11478;51.094;7.030;2024-02-21T15:14:54;11.10;99.90
22623;DHT22;11478;51.094;7.030;2024-02-21T15:17:24;11.10;99.90
22623;DHT22;11478;51.094;7.030;2024-02-21T15:19:49;11.10;99.90
22623;DHT22;11478;51.094;7.030;2024-02-21T15:22:30;11.10;99.90
22623;DHT22;11478;51.094;7.030;2024-02-21T15:24:57;11.10;99.90
22623;DHT22;11478;51.094;7.030;2024-02-21T15:30:16;11.00;99.90
22623;DHT22;11478;51.094;7.030;2024-02-21T15:33:03;10.90;99.90
22623;DHT22;11478;51.094;7.030;2024-02-21T15:35:29;10.80;99.90
22623;DHT22;11478;51.094;7.030;2024-02-21T15:38:21;10.80;99.90
22623;DHT22;11478;51.094;7.030;2024-02-21T15:46:47;10.60;99.90
22623;DHT22;11478;51.094;7.030;2024-02-21T15:49:45;10.70;99.90
22623;DHT22;11478;51.094;7.030;2024-02-21T15:52:15;10.60;99.90
22623;DHT22;11478;51.094;7.030;2024-02-21T15:54:54;10.50;99.90
22623;DHT22;11478;51.094;7.030;2024-02-21T15:57:44;10.50;99.90
22623;DHT22;11478;51.094;7.030;2024-02-21T16:00:10;10.50;99.90
22623;DHT22;11478;51.094;7.030;2024-02-21T16:02:54;10.50;99.90
22623;DHT22;11478;51.094;7.030;2024-02-21T16:05:19;10.40;99.90
22623;DHT22;11478;51.094;7.030;2024-02-21T16:07:52;10.40;99.90